createdAt,value
2023-04-05T00:00:08.320Z,1.96
2023-04-05T00:03:00.082Z,1.99
2023-04-05T00:05:50.622Z,2.07
2023-04-05T00:08:39.100Z,2.09
2023-04-05T00:11:28.271Z,1.96
2023-04-05T00:14:16.949Z,1.89
2023-04-05T00:17:05.603Z,1.89
2023-04-05T00:19:57.292Z,1.86
2023-04-05T00:22:50.442Z,1.83
2023-04-05T00:25:39.167Z,1.65
2023-04-05T00:28:27.674Z,1.85
2023-04-05T00:31:16.377Z,1.73
2023-04-05T00:34:05.988Z,1.77
2023-04-05T00:36:54.428Z,1.86
2023-04-05T00:39:44.277Z,1.68
2023-04-05T00:42:32.803Z,1.84
2023-04-05T00:45:21.413Z,1.83
2023-04-05T00:48:10.146Z,1.71
2023-04-05T00:50:59.381Z,1.68
2023-04-05T00:53:48.855Z,1.59
2023-04-05T00:56:38.689Z,1.58
2023-04-05T00:59:28.915Z,1.48
2023-04-05T01:02:21.119Z,1.17
2023-04-05T01:05:15.824Z,1.49
2023-04-05T01:08:09.520Z,1.45
2023-04-05T01:11:01.132Z,1.53
2023-04-05T01:13:51.083Z,1.50
2023-04-05T01:16:39.557Z,1.45
2023-04-05T01:19:30.057Z,1.41
2023-04-05T01:22:49.728Z,1.45
2023-04-05T01:26:19.805Z,1.37
2023-04-05T01:29:41.896Z,1.28
2023-04-05T01:32:39.208Z,1.20
2023-04-05T01:35:34.927Z,1.14
2023-04-05T01:38:25.147Z,1.11
2023-04-05T01:41:13.666Z,1.07
2023-04-05T01:44:02.308Z,0.97
2023-04-05T01:46:52.250Z,0.97
2023-04-05T01:49:40.735Z,0.89
2023-04-05T01:52:29.274Z,0.93
2023-04-05T01:55:17.762Z,0.93
2023-04-05T01:58:06.240Z,0.92
2023-04-05T02:00:55.643Z,0.98
2023-04-05T02:03:45.589Z,0.95
2023-04-05T02:06:34.210Z,0.90
2023-04-05T02:09:22.711Z,0.92
2023-04-05T02:12:11.156Z,0.85
2023-04-05T02:14:59.679Z,0.78
2023-04-05T02:17:48.149Z,0.65
2023-04-05T02:20:38.893Z,0.79
2023-04-05T02:23:27.885Z,0.78
2023-04-05T02:26:16.515Z,0.69
2023-04-05T02:29:05.340Z,0.63
2023-04-05T02:31:54.432Z,0.57
2023-04-05T02:34:43.494Z,0.50
2023-04-05T02:37:33.400Z,0.51
2023-04-05T02:40:22.881Z,0.56
2023-04-05T02:43:11.374Z,0.52
2023-04-05T02:46:01.998Z,0.51
2023-04-05T02:48:50.539Z,0.55
2023-04-05T02:51:39.107Z,0.59
2023-04-05T02:54:28.885Z,0.48
2023-04-05T02:57:17.460Z,0.51
2023-04-05T03:00:08.309Z,0.49
2023-04-05T03:02:57.164Z,0.49
2023-04-05T03:05:46.972Z,0.46
2023-04-05T03:08:36.912Z,0.46
2023-04-05T03:11:26.805Z,0.48
2023-04-05T03:14:15.519Z,0.39
2023-04-05T03:17:04.092Z,0.37
2023-04-05T03:19:52.625Z,0.38
2023-04-05T03:22:41.678Z,0.02
2023-04-05T03:25:30.135Z,0.18
2023-04-05T03:28:20.036Z,0.14
2023-04-05T03:31:08.585Z,0.12
2023-04-05T03:33:57.224Z,0.17
2023-04-05T03:36:45.746Z,0.16
2023-04-05T03:39:34.243Z,0.19
2023-04-05T03:42:22.829Z,0.15
2023-04-05T03:45:12.921Z,-0.13
2023-04-05T03:48:01.763Z,0.11
2023-04-05T03:50:50.322Z,0.06
2023-04-05T03:53:38.859Z,-0.03
2023-04-05T03:56:27.729Z,0.04
2023-04-05T03:59:16.375Z,0.04
2023-04-05T04:02:06.271Z,0.05
2023-04-05T04:04:54.852Z,0.04
2023-04-05T04:07:43.839Z,0.04
2023-04-05T04:10:32.386Z,0.00
2023-04-05T04:13:20.874Z,0.04
2023-04-05T04:16:09.438Z,0.03
2023-04-05T04:18:59.476Z,0.02
2023-04-05T04:21:51.771Z,-0.01
2023-04-05T04:24:40.746Z,-0.11
2023-04-05T04:27:30.373Z,-0.05
2023-04-05T04:30:22.720Z,-0.06
2023-04-05T04:33:11.405Z,-0.11
2023-04-05T04:36:02.734Z,-0.12
2023-04-05T04:38:51.265Z,-0.12
2023-04-05T04:41:44.794Z,-0.07
2023-04-05T04:44:33.235Z,-0.20
2023-04-05T04:47:21.872Z,-0.18
2023-04-05T04:50:11.721Z,-0.13
2023-04-05T04:53:01.875Z,-0.18
2023-04-05T04:55:50.503Z,-0.12
2023-04-05T04:58:38.953Z,-0.12
2023-04-05T05:01:27.454Z,-0.16
2023-04-05T05:04:16.189Z,-0.28
2023-04-05T05:07:04.755Z,-0.14
2023-04-05T05:09:54.598Z,-0.16
2023-04-05T05:12:43.323Z,-0.12
2023-04-05T05:15:31.824Z,-0.11
2023-04-05T05:18:20.436Z,-0.06
2023-04-05T05:21:08.944Z,-0.13
2023-04-05T05:23:57.399Z,-0.11
2023-04-05T05:26:47.271Z,-0.16
2023-04-05T05:29:35.793Z,-0.16
2023-04-05T05:32:24.306Z,-0.13
2023-04-05T05:35:12.841Z,-0.04
2023-04-05T05:38:01.413Z,0.07
2023-04-05T05:40:49.938Z,0.16
2023-04-05T05:43:39.813Z,0.29
2023-04-05T05:46:28.411Z,0.32
2023-04-05T05:49:17.928Z,0.57
2023-04-05T05:52:06.557Z,0.62
2023-04-05T05:54:55.195Z,0.64
2023-04-05T05:57:43.712Z,0.82
2023-04-05T06:00:33.568Z,1.00
2023-04-05T06:03:22.165Z,1.25
2023-04-05T06:06:11.153Z,1.40
2023-04-05T06:08:59.756Z,1.62
2023-04-05T06:11:55.770Z,1.85
2023-04-05T06:14:45.197Z,2.05
2023-04-05T06:17:41.742Z,2.12
2023-04-05T06:20:30.332Z,2.31
2023-04-05T06:23:18.761Z,2.57
2023-04-05T06:26:07.279Z,2.84
2023-04-05T06:28:56.021Z,2.62
2023-04-05T06:31:46.593Z,3.20
2023-04-05T06:34:36.568Z,3.48
2023-04-05T06:37:25.090Z,3.37
2023-04-05T06:40:14.031Z,3.23
2023-04-05T06:43:02.554Z,3.56
2023-04-05T06:45:51.097Z,3.64
2023-04-05T06:48:39.974Z,3.84
2023-04-05T06:51:29.920Z,4.02
2023-04-05T06:54:18.390Z,4.28
2023-04-05T06:57:06.932Z,4.03
2023-04-05T06:59:55.817Z,4.77
2023-04-05T07:02:44.599Z,4.88
2023-04-05T07:05:33.119Z,5.22
2023-04-05T07:08:23.015Z,5.29
2023-04-05T07:11:11.511Z,5.54
2023-04-05T07:14:00.006Z,5.61
2023-04-05T07:16:49.841Z,5.61
2023-04-05T07:19:38.413Z,5.39
2023-04-05T07:22:27.030Z,5.64
2023-04-05T07:25:17.011Z,5.96
2023-04-05T07:28:05.803Z,6.22
2023-04-05T07:30:54.305Z,6.23
2023-04-05T07:33:42.744Z,6.23
2023-04-05T07:36:31.315Z,6.44
2023-04-05T07:39:21.230Z,6.40
2023-04-05T07:42:11.297Z,6.42
2023-04-05T07:44:59.815Z,6.26
2023-04-05T07:47:48.294Z,6.59
2023-04-05T07:50:39.829Z,6.55
2023-04-05T07:53:28.493Z,6.81
2023-04-05T07:56:16.990Z,6.66
2023-04-05T07:59:06.870Z,7.00
2023-04-05T08:01:57.239Z,7.19
2023-04-05T08:04:50.547Z,7.23
2023-04-05T08:07:39.059Z,7.39
2023-04-05T08:10:27.657Z,7.86
2023-04-05T08:13:16.148Z,7.96
2023-04-05T08:16:06.483Z,7.74
2023-04-05T08:18:55.034Z,8.13
2023-04-05T08:21:43.510Z,7.88
2023-04-05T08:24:32.065Z,8.40
2023-04-05T08:27:20.722Z,8.24
2023-04-05T08:30:10.394Z,8.20
2023-04-05T08:33:00.402Z,8.22
2023-04-05T08:35:48.936Z,8.28
2023-04-05T08:38:37.747Z,8.56
2023-04-05T08:41:28.128Z,8.87
2023-04-05T08:44:17.124Z,9.02
2023-04-05T08:47:06.010Z,8.83
2023-04-05T08:49:55.956Z,8.89
2023-04-05T08:52:49.841Z,8.74
2023-04-05T08:55:38.953Z,8.74
2023-04-05T08:58:27.993Z,9.00
2023-04-05T09:01:17.656Z,9.41
2023-04-05T09:04:07.927Z,9.29
2023-04-05T09:06:59.764Z,9.64
2023-04-05T09:09:52.241Z,9.59
2023-04-05T09:12:42.045Z,9.53
2023-04-05T09:15:31.136Z,10.12
2023-04-05T09:18:26.922Z,10.01
2023-04-05T09:21:17.639Z,10.35
2023-04-05T09:24:08.329Z,10.50
2023-04-05T09:27:05.224Z,10.55
2023-04-05T09:29:53.792Z,9.93
2023-04-05T09:32:47.898Z,10.07
2023-04-05T09:35:37.811Z,9.55
2023-04-05T09:38:44.354Z,10.11
2023-04-05T09:41:34.682Z,10.12
2023-04-05T09:44:23.188Z,10.49
2023-04-05T09:47:17.160Z,10.62
2023-04-05T09:50:19.208Z,10.21
2023-04-05T09:53:09.697Z,10.48
2023-04-05T09:56:10.266Z,9.55
2023-04-05T09:59:07.907Z,9.96
2023-04-05T10:01:56.514Z,10.51
2023-04-05T10:04:46.655Z,10.55
2023-04-05T10:07:35.913Z,10.19
2023-04-05T10:10:25.327Z,10.63
2023-04-05T10:13:14.264Z,10.62
2023-04-05T10:16:07.870Z,10.64
2023-04-05T10:18:56.334Z,10.70
2023-04-05T10:21:45.792Z,11.12
2023-04-05T10:24:37.560Z,11.53
2023-04-05T10:27:31.491Z,11.48
2023-04-05T10:30:20.122Z,11.50
2023-04-05T10:33:13.141Z,10.96
2023-04-05T10:36:08.360Z,10.69
2023-04-05T10:39:04.227Z,11.10
2023-04-05T10:41:56.380Z,11.05
2023-04-05T10:44:47.459Z,11.28
2023-04-05T10:47:42.301Z,11.22
2023-04-05T10:50:33.270Z,11.25
2023-04-05T10:53:22.136Z,11.31
2023-04-05T10:56:11.013Z,11.44
2023-04-05T10:58:59.969Z,10.89
2023-04-05T11:01:48.739Z,11.27
2023-04-05T11:04:40.173Z,11.01
2023-04-05T11:07:44.015Z,11.65
2023-04-05T11:10:33.435Z,11.56
2023-04-05T11:13:21.875Z,11.44
2023-04-05T11:16:10.689Z,11.07
2023-04-05T11:18:59.136Z,11.03
2023-04-05T11:21:47.927Z,10.69
2023-04-05T11:24:51.727Z,10.57
2023-04-05T11:27:41.703Z,11.29
2023-04-05T11:30:48.350Z,11.96
2023-04-05T11:33:57.259Z,11.70
2023-04-05T11:36:50.339Z,11.34
2023-04-05T11:39:39.250Z,11.69
2023-04-05T11:42:29.137Z,11.87
2023-04-05T11:45:20.320Z,11.68
2023-04-05T11:48:10.233Z,11.70
2023-04-05T11:50:58.934Z,11.28
2023-04-05T11:53:47.844Z,11.54
2023-04-05T11:56:36.336Z,11.83
2023-04-05T11:59:36.494Z,12.05
2023-04-05T12:02:26.467Z,11.87
2023-04-05T12:05:15.162Z,11.74
2023-04-05T12:08:03.701Z,11.17
2023-04-05T12:10:56.786Z,10.56
2023-04-05T12:13:46.742Z,11.44
2023-04-05T12:16:36.694Z,11.83
2023-04-05T12:19:25.232Z,12.06
2023-04-05T12:22:18.403Z,12.25
2023-04-05T12:25:07.789Z,12.34
2023-04-05T12:27:56.321Z,12.53
2023-04-05T12:30:54.590Z,12.20
2023-04-05T12:33:44.677Z,12.08
2023-04-05T12:36:33.340Z,12.13
2023-04-05T12:39:22.677Z,11.99
2023-04-05T12:42:18.465Z,12.25
2023-04-05T12:45:09.517Z,12.64
2023-04-05T12:48:00.699Z,12.96
2023-04-05T12:50:53.630Z,12.35
2023-04-05T12:53:47.062Z,12.66
2023-04-05T12:56:35.720Z,12.87
2023-04-05T12:59:24.839Z,12.93
2023-04-05T13:02:13.394Z,13.05
2023-04-05T13:05:01.889Z,12.97
2023-04-05T13:07:51.975Z,13.17
2023-04-05T13:10:40.620Z,12.47
2023-04-05T13:13:29.151Z,12.57
2023-04-05T13:16:17.850Z,12.91
2023-04-05T13:19:06.416Z,13.02
2023-04-05T13:21:54.900Z,13.19
2023-04-05T13:24:44.790Z,12.57
2023-04-05T13:27:33.309Z,12.84
2023-04-05T13:30:22.056Z,12.75
2023-04-05T13:33:10.667Z,13.02
2023-04-05T13:35:59.210Z,12.79
2023-04-05T13:38:47.728Z,12.85
2023-04-05T13:41:37.605Z,12.54
2023-04-05T13:44:26.068Z,12.83
2023-04-05T13:47:14.913Z,12.90
2023-04-05T13:50:03.791Z,12.80
2023-04-05T13:52:52.690Z,12.95
2023-04-05T13:55:41.362Z,12.80
2023-04-05T13:58:31.437Z,12.96
2023-04-05T14:01:20.035Z,12.87
2023-04-05T14:04:08.561Z,12.83
2023-04-05T14:06:57.672Z,12.72
2023-04-05T14:09:46.200Z,12.78
2023-04-05T14:12:34.934Z,12.28
2023-04-05T14:15:24.837Z,12.61
2023-04-05T14:18:13.482Z,12.74
2023-04-05T14:21:02.343Z,12.58
2023-04-05T14:23:54.224Z,12.86
2023-04-05T14:26:45.214Z,12.73
2023-04-05T14:29:33.783Z,12.57
2023-04-05T14:32:24.186Z,12.30
2023-04-05T14:35:12.792Z,12.48
2023-04-05T14:38:01.589Z,12.40
2023-04-05T14:40:50.317Z,12.52
2023-04-05T14:43:39.218Z,12.49
2023-04-05T14:46:28.491Z,12.31
2023-04-05T14:49:18.441Z,12.25
2023-04-05T14:52:07.085Z,12.22
2023-04-05T14:54:55.670Z,12.23
2023-04-05T14:57:44.388Z,12.39
2023-04-05T15:00:33.154Z,12.36
2023-04-05T15:03:21.864Z,12.49
2023-04-05T15:06:11.961Z,12.36
2023-04-05T15:09:00.642Z,12.43
2023-04-05T15:11:49.179Z,12.36
2023-04-05T15:14:37.809Z,12.38
2023-04-05T15:17:26.791Z,12.19
2023-04-05T15:20:15.565Z,11.89
2023-04-05T15:23:05.505Z,12.00
2023-04-05T15:25:54.051Z,11.87
2023-04-05T15:28:42.631Z,11.73
2023-04-05T15:31:31.304Z,11.79
2023-04-05T15:34:19.906Z,11.80
2023-04-05T15:37:08.503Z,11.77
2023-04-05T15:39:59.330Z,11.77
2023-04-05T15:42:49.379Z,11.67
2023-04-05T15:45:38.021Z,11.69
2023-04-05T15:48:26.650Z,11.75
2023-04-05T15:51:15.374Z,11.89
2023-04-05T15:54:04.241Z,11.82
2023-04-05T15:56:54.242Z,11.75
2023-04-05T15:59:42.968Z,11.67
2023-04-05T16:02:32.281Z,11.40
2023-04-05T16:05:20.955Z,11.36
2023-04-05T16:08:09.622Z,11.39
2023-04-05T16:10:58.287Z,11.50
2023-04-05T16:13:48.314Z,11.47
2023-04-05T16:16:45.992Z,11.48
2023-04-05T16:19:41.341Z,11.39
2023-04-05T16:22:29.941Z,11.33
2023-04-05T16:25:18.736Z,11.14
2023-04-05T16:28:07.433Z,11.03
2023-04-05T16:30:59.900Z,10.99
2023-04-05T16:33:48.504Z,11.01
2023-04-05T16:36:37.199Z,11.03
2023-04-05T16:39:25.878Z,11.04
2023-04-05T16:42:14.462Z,10.99
2023-04-05T16:45:03.236Z,11.11
2023-04-05T16:47:53.261Z,11.09
2023-04-05T16:50:42.184Z,11.00
2023-04-05T16:53:31.175Z,10.93
2023-04-05T16:56:20.111Z,10.87
2023-04-05T16:59:09.479Z,10.86
2023-04-05T17:01:58.285Z,10.89
2023-04-05T17:04:48.496Z,11.12
2023-04-05T17:07:37.139Z,10.94
2023-04-05T17:10:26.040Z,10.79
2023-04-05T17:13:15.395Z,10.83
2023-04-05T17:16:04.047Z,10.92
2023-04-05T17:18:52.724Z,10.77
2023-04-05T17:21:45.021Z,10.59
2023-04-05T17:24:35.998Z,10.58
2023-04-05T17:27:26.032Z,10.48
2023-04-05T17:30:15.377Z,10.53
2023-04-05T17:33:04.020Z,10.42
2023-04-05T17:35:52.991Z,10.29
2023-04-05T17:38:42.950Z,10.22
2023-04-05T17:41:31.508Z,10.18
2023-04-05T17:44:20.088Z,10.05
2023-04-05T17:47:09.821Z,10.00
2023-04-05T17:49:58.674Z,9.83
2023-04-05T17:52:47.760Z,9.79
2023-04-05T17:55:37.740Z,9.71
2023-04-05T17:58:26.389Z,9.64
2023-04-05T18:01:15.363Z,9.57
2023-04-05T18:04:05.637Z,9.52
2023-04-05T18:06:56.350Z,9.42
2023-04-05T18:09:45.021Z,9.34
2023-04-05T18:12:35.987Z,9.17
2023-04-05T18:15:24.661Z,9.04
2023-04-05T18:18:13.255Z,8.89
2023-04-05T18:21:02.811Z,8.79
2023-04-05T18:23:51.427Z,8.60
2023-04-05T18:26:40.034Z,8.42
2023-04-05T18:29:30.719Z,8.28
2023-04-05T18:32:19.569Z,8.13
2023-04-05T18:35:09.843Z,8.01
2023-04-05T18:37:58.594Z,7.97
2023-04-05T18:40:47.617Z,7.85
2023-04-05T18:43:36.263Z,7.78
2023-04-05T18:46:26.826Z,7.73
2023-04-05T18:49:15.843Z,7.66
2023-04-05T18:52:04.470Z,7.47
2023-04-05T18:54:53.187Z,7.27
2023-04-05T18:57:41.825Z,7.12
2023-04-05T19:00:30.408Z,6.97
2023-04-05T19:03:20.627Z,6.87
2023-04-05T19:06:09.264Z,6.74
2023-04-05T19:08:57.977Z,6.69
2023-04-05T19:11:46.687Z,6.57
2023-04-05T19:14:37.067Z,6.35
2023-04-05T19:17:25.796Z,6.33
2023-04-05T19:20:15.845Z,6.22
2023-04-05T19:23:04.647Z,6.11
2023-04-05T19:25:53.602Z,6.08
2023-04-05T19:28:42.219Z,5.97
2023-04-05T19:31:32.204Z,5.91
2023-04-05T19:34:20.959Z,5.78
2023-04-05T19:37:11.056Z,5.61
2023-04-05T19:39:59.768Z,5.49
2023-04-05T19:42:48.454Z,5.40
2023-04-05T19:45:37.734Z,5.34
2023-04-05T19:48:37.948Z,5.19
2023-04-05T19:51:28.728Z,5.09
2023-04-05T19:54:19.584Z,4.98
2023-04-05T19:57:09.755Z,4.98
2023-04-05T19:59:58.433Z,4.90
2023-04-05T20:02:47.107Z,4.87
2023-04-05T20:06:01.464Z,4.85
2023-04-05T20:08:50.161Z,4.86
2023-04-05T20:11:40.328Z,4.83
2023-04-05T20:14:30.599Z,4.80
2023-04-05T20:17:19.400Z,4.77
2023-04-05T20:20:09.449Z,4.71
2023-04-05T20:22:58.661Z,4.50
2023-04-05T20:25:47.517Z,4.57
2023-04-05T20:28:39.288Z,4.40
2023-04-05T20:31:30.023Z,4.50
2023-04-05T20:34:25.776Z,4.48
2023-04-05T20:37:14.355Z,4.31
2023-04-05T20:40:03.023Z,4.29
2023-04-05T20:42:52.038Z,4.30
2023-04-05T20:45:42.187Z,4.19
2023-04-05T20:48:30.904Z,4.13
2023-04-05T20:51:19.531Z,3.99
2023-04-05T20:54:08.218Z,3.94
2023-04-05T20:56:56.953Z,3.88
2023-04-05T20:59:45.798Z,3.99
2023-04-05T21:02:35.900Z,3.98
2023-04-05T21:05:24.597Z,4.04
2023-04-05T21:08:13.575Z,4.07
2023-04-05T21:11:02.279Z,3.85
2023-04-05T21:13:50.927Z,4.23
2023-04-05T21:16:39.534Z,4.30
2023-04-05T21:19:29.560Z,4.21
2023-04-05T21:22:18.230Z,4.15
2023-04-05T21:25:07.710Z,4.12
2023-04-05T21:27:56.286Z,4.10
2023-04-05T21:30:44.882Z,3.91
2023-04-05T21:33:33.475Z,3.57
2023-04-05T21:36:23.491Z,3.71
2023-04-05T21:39:12.132Z,3.57
2023-04-05T21:42:01.216Z,3.55
2023-04-05T21:44:49.820Z,3.53
2023-04-05T21:47:38.573Z,3.36
2023-04-05T21:50:27.283Z,3.26
2023-04-05T21:53:17.331Z,3.26
2023-04-05T21:56:06.419Z,3.19
2023-04-05T21:58:55.143Z,3.05
2023-04-05T22:01:43.881Z,3.02
2023-04-05T22:04:32.517Z,3.08
2023-04-05T22:07:21.222Z,3.07
2023-04-05T22:10:11.848Z,3.17
2023-04-05T22:13:00.500Z,3.02
2023-04-05T22:15:49.126Z,2.90
2023-04-05T22:18:37.788Z,2.85
2023-04-05T22:21:26.495Z,3.15
2023-04-05T22:24:15.549Z,2.65
2023-04-05T22:27:05.583Z,2.92
2023-04-05T22:29:54.760Z,2.99
2023-04-05T22:32:43.379Z,2.99
2023-04-05T22:35:32.114Z,3.03
2023-04-05T22:38:20.770Z,2.94
2023-04-05T22:41:09.358Z,3.02
2023-04-05T22:43:59.383Z,2.94
2023-04-05T22:46:47.995Z,2.82
2023-04-05T22:49:36.736Z,2.73
2023-04-05T22:52:25.418Z,2.65
2023-04-05T22:55:14.404Z,2.70
2023-04-05T22:58:03.018Z,2.75
2023-04-05T23:00:53.033Z,2.77
2023-04-05T23:03:41.636Z,2.76
2023-04-05T23:06:31.571Z,2.75
2023-04-05T23:09:20.206Z,2.71
2023-04-05T23:12:10.991Z,2.64
2023-04-05T23:14:59.865Z,2.62
2023-04-05T23:17:50.275Z,2.58
2023-04-05T23:20:39.007Z,2.63
2023-04-05T23:23:27.641Z,2.58
2023-04-05T23:26:16.565Z,2.66
2023-04-05T23:29:05.434Z,2.65
2023-04-05T23:31:54.350Z,2.63
2023-04-05T23:34:44.413Z,2.64
2023-04-05T23:37:33.105Z,2.56
2023-04-05T23:40:21.776Z,2.47
2023-04-05T23:43:10.459Z,2.52
2023-04-05T23:45:59.154Z,2.16
2023-04-05T23:48:47.824Z,2.21
2023-04-05T23:51:37.806Z,2.29
2023-04-05T23:54:26.464Z,2.32
2023-04-05T23:57:15.085Z,2.19
